South Plains, Texas
Current Conditions -  °F | °C
As of 4:35 PM on Sunday 23 Nov 2014 (Local Time) from KPVW Reporting Station
Overcast Overcast  
Wind Chill: 34°   Ceiling: 5500
Heat Index: 42°   Visibility: 10mi
Dew Point: 31°   Wind: 20mph
Humidity: 65%   Direction: 350°N
Pressure: 29.77"   Gusts: 25mph
Location:  34.22°N, 101.31°W
Report Text: KPVW 232235Z AUTO 35017G22KT 10SM SCT045 BKN055 OVC065 06/00 A2977 RMK AO2 T00571004
Loading
Personal Weather Stations






























Interactive Weather Map New forecast layout! Learn more

10-Day Weather Forecast

Advertisements
Track Severe Weather on mobile